Time;durP1;ratioP1;P1;durP2;ratioP2;P2;SDS_P1;SDS_P2;PMS_P1;PMS_P2;Temp;Humidity;BMP_temperature;BMP_pressure;BME280_temperature;BME280_humidity;BME280_pressure;Samples;Min_cycle;Max_cycle;Signal;HPM_P1;HPM_P2
2024/03/30 00:01:08;;;;;;;41.10;15.27;;;15.10;1.00;;;;;;5072563;28;20178;-69
2024/03/30 00:03:34;;;;;;;75.03;17.30;;;15.00;1.00;;;;;;5074717;28;20192;-69
2024/03/30 00:06:00;;;;;;;44.30;14.50;;;15.10;1.00;;;;;;5074796;28;20264;-66
2024/03/30 00:08:26;;;;;;;37.90;12.80;;;15.20;1.00;;;;;;5074602;28;20194;-66
2024/03/30 00:11:02;;;;;;;48.33;15.33;;;15.20;1.00;;;;;;5074688;28;20416;-67
2024/03/30 00:13:28;;;;;;;43.47;12.80;;;15.20;1.00;;;;;;5074831;28;20192;-67
2024/03/30 00:15:54;;;;;;;63.33;13.93;;;15.30;1.00;;;;;;5074656;28;20404;-67
2024/03/30 00:18:19;;;;;;;43.17;13.00;;;15.40;1.00;;;;;;5074199;28;20293;-68
2024/03/30 00:20:45;;;;;;;40.23;12.07;;;15.50;1.00;;;;;;5056418;28;20197;-66
2024/03/30 00:23:10;;;;;;;73.37;14.27;;;15.50;1.00;;;;;;5074864;28;20180;-67
2024/03/30 00:25:36;;;;;;;42.30;13.30;;;15.40;1.00;;;;;;5074978;28;20177;-67
2024/03/30 00:28:01;;;;;;;49.97;14.57;;;15.40;1.00;;;;;;5074803;28;20212;-68
2024/03/30 00:30:29;;;;;;;44.60;12.47;;;15.40;1.00;;;;;;5074436;28;20472;-67
2024/03/30 00:32:54;;;;;;;35.13;13.50;;;15.40;1.00;;;;;;5056251;28;20178;-67
2024/03/30 00:35:20;;;;;;;39.20;13.00;;;15.40;1.00;;;;;;5074153;28;20851;-67
2024/03/30 00:37:47;;;;;;;41.20;12.50;;;15.40;1.00;;;;;;5073531;28;20209;-68
2024/03/30 00:40:13;;;;;;;45.20;14.07;;;15.40;1.00;;;;;;5056249;28;20174;-66
2024/03/30 00:42:39;;;;;;;55.27;12.37;;;15.40;1.00;;;;;;5056087;28;20427;-68
2024/03/30 00:45:05;;;;;;;39.80;11.77;;;15.40;1.00;;;;;;5074036;28;20178;-67
2024/03/30 00:47:30;;;;;;;29.93;10.93;;;15.50;1.00;;;;;;5073745;28;20205;-68
2024/03/30 00:49:56;;;;;;;26.13;11.90;;;15.50;1.00;;;;;;5056266;28;20427;-68
2024/03/30 00:52:21;;;;;;;33.47;12.67;;;15.50;1.00;;;;;;5074034;28;20279;-67
2024/03/30 00:54:47;;;;;;;40.80;12.33;;;15.50;1.00;;;;;;5073947;28;20565;-67
2024/03/30 00:57:12;;;;;;;42.93;12.37;;;15.40;1.00;;;;;;5073848;28;20197;-67
2024/03/30 00:59:40;;;;;;;40.77;13.40;;;15.40;1.00;;;;;;5073594;28;20173;-67
2024/03/30 01:02:06;;;;;;;62.17;14.67;;;15.50;1.00;;;;;;5074131;28;20529;-66
2024/03/30 01:04:32;;;;;;;37.30;13.40;;;15.40;1.00;;;;;;5073956;28;20507;-67
2024/03/30 01:06:58;;;;;;;33.00;12.60;;;15.40;1.00;;;;;;5073479;28;20494;-67
2024/03/30 01:09:25;;;;;;;33.17;11.40;;;15.50;1.00;;;;;;5073390;28;20957;-67
2024/03/30 01:11:51;;;;;;;34.07;11.53;;;15.40;1.00;;;;;;5073251;28;20412;-67
2024/03/30 01:14:18;;;;;;;43.13;11.47;;;15.40;1.00;;;;;;5073450;28;20412;-67
2024/03/30 01:16:45;;;;;;;28.57;10.03;;;15.40;1.00;;;;;;5073307;28;20444;-67
2024/03/30 01:19:10;;;;;;;30.77;12.70;;;15.40;1.00;;;;;;5072986;28;20432;-67
2024/03/30 01:21:36;;;;;;;27.00;11.40;;;15.40;1.00;;;;;;5073297;28;20425;-66
2024/03/30 01:24:02;;;;;;;40.17;10.73;;;15.30;1.00;;;;;;5073539;28;20182;-66
2024/03/30 01:26:28;;;;;;;28.20;12.63;;;15.40;1.00;;;;;;5073004;28;20572;-67
2024/03/30 01:28:57;;;;;;;44.00;12.00;;;15.40;1.00;;;;;;5072888;28;20209;-67
2024/03/30 01:31:23;;;;;;;31.77;12.10;;;15.30;1.00;;;;;;5073037;28;20515;-67
2024/03/30 01:33:48;;;;;;;31.13;11.30;;;15.20;1.00;;;;;;5072937;28;20428;-67
2024/03/30 01:36:14;;;;;;;37.90;11.90;;;15.30;1.00;;;;;;5054871;28;20269;-66
2024/03/30 01:38:39;;;;;;;43.43;12.93;;;15.30;1.00;;;;;;5054557;28;20411;-66
2024/03/30 01:41:05;;;;;;;37.23;12.00;;;15.30;1.00;;;;;;5054741;28;20601;-66
2024/03/30 01:43:31;;;;;;;42.23;12.73;;;15.30;1.00;;;;;;5073055;28;20685;-66
2024/03/30 01:45:57;;;;;;;34.33;12.50;;;15.30;1.00;;;;;;5072776;28;20185;-68
2024/03/30 01:48:23;;;;;;;35.27;10.33;;;15.30;1.00;;;;;;5054497;28;20284;-67
2024/03/30 01:50:50;;;;;;;50.80;13.10;;;15.40;1.00;;;;;;5072821;28;20744;-67
2024/03/30 01:53:19;;;;;;;29.93;10.87;;;15.40;1.00;;;;;;5072857;28;20500;-67
2024/03/30 01:55:48;;;;;;;26.80;10.40;;;15.30;1.00;;;;;;5072761;28;20441;-67
2024/03/30 01:58:19;;;;;;;45.10;11.57;;;15.30;1.00;;;;;;5072310;28;20476;-66
2024/03/30 02:00:46;;;;;;;34.83;9.73;;;15.30;1.00;;;;;;5054685;28;20610;-66
2024/03/30 02:03:11;;;;;;;43.87;14.43;;;15.30;1.00;;;;;;5072568;28;20416;-67
2024/03/30 02:05:37;;;;;;;32.20;11.80;;;15.30;1.00;;;;;;5072149;28;20423;-67
2024/03/30 02:08:04;;;;;;;41.00;11.10;;;15.30;1.00;;;;;;5072496;28;20198;-67
2024/03/30 02:10:30;;;;;;;59.23;10.30;;;15.30;1.00;;;;;;5072196;28;20170;-67
2024/03/30 02:12:55;;;;;;;41.73;10.27;;;15.40;1.00;;;;;;5054067;28;20789;-67
2024/03/30 02:15:22;;;;;;;25.80;10.50;;;15.40;1.00;;;;;;5054313;28;20431;-68
2024/03/30 02:17:48;;;;;;;26.83;10.60;;;15.40;1.00;;;;;;5053736;28;20224;-67
2024/03/30 02:20:13;;;;;;;28.43;9.57;;;15.40;1.00;;;;;;5072003;28;20420;-67
2024/03/30 02:22:39;;;;;;;32.13;10.53;;;15.40;1.00;;;;;;5053931;28;20545;-67
2024/03/30 02:25:04;;;;;;;36.47;10.50;;;15.40;1.00;;;;;;5071622;28;20204;-66
2024/03/30 02:27:31;;;;;;;32.50;9.00;;;15.50;1.00;;;;;;5071981;28;20237;-66
2024/03/30 02:30:01;;;;;;;29.13;8.90;;;15.50;1.00;;;;;;5053728;28;20182;-68
2024/03/30 02:32:28;;;;;;;22.73;9.80;;;15.50;1.00;;;;;;5071725;28;20482;-67
2024/03/30 02:34:54;;;;;;;21.90;9.30;;;15.60;1.00;;;;;;5053961;28;20791;-67
2024/03/30 02:37:20;;;;;;;26.70;8.53;;;15.60;1.00;;;;;;5071599;28;20468;-67
2024/03/30 02:39:45;;;;;;;25.33;9.40;;;15.60;1.00;;;;;;5071694;28;20408;-69
2024/03/30 02:42:11;;;;;;;21.23;8.53;;;15.70;1.00;;;;;;5071679;28;20174;-67
2024/03/30 02:44:36;;;;;;;21.80;9.30;;;15.70;1.00;;;;;;5072258;28;20189;-67
2024/03/30 02:47:02;;;;;;;40.57;9.73;;;15.70;1.00;;;;;;5071724;28;20545;-68
2024/03/30 02:49:27;;;;;;;19.33;7.33;;;15.70;1.00;;;;;;5071753;28;20174;-67
2024/03/30 02:51:53;;;;;;;27.93;7.70;;;15.80;1.00;;;;;;5071856;28;20174;-68
2024/03/30 02:54:18;;;;;;;32.73;9.00;;;15.80;1.00;;;;;;5053773;28;20185;-68
2024/03/30 02:56:44;;;;;;;25.67;9.07;;;15.90;1.00;;;;;;5073004;28;20190;-68
2024/03/30 02:59:09;;;;;;;21.70;8.13;;;16.00;1.00;;;;;;5071206;28;20566;-67
2024/03/30 03:01:36;;;;;;;16.03;7.50;;;16.00;1.00;;;;;;5071434;28;20178;-67
2024/03/30 03:04:03;;;;;;;18.10;6.83;;;16.00;1.00;;;;;;5071607;28;20174;-66
2024/03/30 03:06:29;;;;;;;26.77;7.30;;;16.00;1.00;;;;;;5071128;28;20396;-67
2024/03/30 03:08:54;;;;;;;21.27;7.67;;;16.20;1.00;;;;;;5070835;28;20436;-67
2024/03/30 03:11:20;;;;;;;14.47;8.20;;;16.10;1.00;;;;;;5071207;28;20488;-68
2024/03/30 03:13:45;;;;;;;28.97;6.90;;;16.10;1.00;;;;;;5071242;28;20612;-67
2024/03/30 03:16:11;;;;;;;13.10;6.97;;;16.10;1.00;;;;;;5071173;28;20538;-66
2024/03/30 03:18:36;;;;;;;14.03;7.33;;;16.10;1.00;;;;;;5070974;28;20284;-68
2024/03/30 03:21:02;;;;;;;18.03;6.00;;;16.10;1.00;;;;;;5071003;28;20257;-69
2024/03/30 03:23:30;;;;;;;12.70;6.53;;;16.00;1.00;;;;;;5071129;28;20700;-67
2024/03/30 03:25:56;;;;;;;15.30;6.50;;;16.00;1.00;;;;;;5070979;28;20180;-67
2024/03/30 03:28:22;;;;;;;21.20;6.80;;;16.00;1.00;;;;;;5070820;28;20763;-67
2024/03/30 03:30:47;;;;;;;24.27;7.27;;;16.00;1.00;;;;;;5071112;28;20178;-67
2024/03/30 03:33:13;;;;;;;20.97;5.97;;;16.10;1.00;;;;;;5070912;28;20273;-67
2024/03/30 03:35:39;;;;;;;16.00;5.70;;;16.10;1.00;;;;;;5070380;28;20185;-67
2024/03/30 03:38:05;;;;;;;19.07;6.37;;;16.10;1.00;;;;;;5068535;23;20601;-69
2024/03/30 03:40:31;;;;;;;12.20;6.10;;;16.00;1.00;;;;;;5031828;28;20183;-69
2024/03/30 03:42:57;;;;;;;14.13;6.80;;;15.90;1.00;;;;;;5031787;28;20258;-69
2024/03/30 03:45:22;;;;;;;14.20;5.97;;;15.90;1.00;;;;;;5031679;28;20485;-68
2024/03/30 03:47:49;;;;;;;9.47;6.03;;;15.90;1.00;;;;;;5036525;28;20256;-69
2024/03/30 03:50:14;;;;;;;12.27;6.27;;;15.90;1.00;;;;;;5053194;28;20177;-69
2024/03/30 03:52:40;;;;;;;16.53;7.47;;;15.80;1.00;;;;;;5067841;28;20413;-69
2024/03/30 03:55:06;;;;;;;19.43;6.87;;;15.80;1.00;;;;;;5053087;28;20405;-69
2024/03/30 03:57:31;;;;;;;9.13;5.83;;;15.80;1.00;;;;;;5051689;28;20194;-69
2024/03/30 03:59:57;;;;;;;15.90;6.13;;;15.80;1.00;;;;;;5051361;28;20178;-68
2024/03/30 04:02:22;;;;;;;14.10;6.03;;;15.80;1.00;;;;;;5052108;28;20166;-69
2024/03/30 04:04:50;;;;;;;17.70;5.57;;;15.70;1.00;;;;;;5051727;28;20526;-69
2024/03/30 04:07:16;;;;;;;18.00;6.33;;;15.60;1.00;;;;;;5051747;28;20217;-69
2024/03/30 04:09:41;;;;;;;14.07;5.70;;;15.60;1.00;;;;;;5051415;28;20444;-69
2024/03/30 04:12:07;;;;;;;19.93;7.53;;;15.50;1.00;;;;;;5051467;28;20557;-69
2024/03/30 04:14:35;;;;;;;18.07;5.43;;;15.50;1.00;;;;;;5051338;28;20209;-69
2024/03/30 04:17:01;;;;;;;12.07;6.10;;;15.50;1.00;;;;;;5051370;28;20281;-69
2024/03/30 04:19:26;;;;;;;16.17;7.10;;;15.40;1.00;;;;;;5051119;28;20974;-70
2024/03/30 04:21:56;;;;;;;22.97;7.13;;;15.40;1.00;;;;;;5051245;28;20171;-70
2024/03/30 04:24:24;;;;;;;19.20;8.70;;;15.40;1.00;;;;;;5051536;28;20182;-70
2024/03/30 04:26:50;;;;;;;15.50;7.00;;;15.30;1.00;;;;;;5051234;28;20409;-70
2024/03/30 04:29:15;;;;;;;12.00;6.27;;;15.40;1.00;;;;;;5050903;28;20520;-70
2024/03/30 04:31:41;;;;;;;15.70;6.23;;;15.40;1.00;;;;;;5051399;28;20177;-70
2024/03/30 04:34:06;;;;;;;10.17;6.40;;;15.40;1.00;;;;;;5051171;28;20526;-69
2024/03/30 04:36:32;;;;;;;13.50;5.53;;;15.30;1.00;;;;;;5051111;28;20202;-70
2024/03/30 04:38:57;;;;;;;14.17;6.00;;;15.10;1.00;;;;;;5050671;28;20206;-69
2024/03/30 04:41:23;;;;;;;14.93;5.70;;;15.00;1.00;;;;;;5051402;28;20220;-71
2024/03/30 04:43:48;;;;;;;15.80;6.20;;;14.90;1.00;;;;;;5051228;28;20177;-70
2024/03/30 04:46:14;;;;;;;14.40;5.50;;;;;;;;;;5051310;28;20673;-70
2024/03/30 04:48:40;;;;;;;23.50;7.90;;;14.80;1.00;;;;;;5054605;28;20194;-70
2024/03/30 04:51:06;;;;;;;15.83;6.50;;;14.70;1.00;;;;;;5054633;28;20416;-70
2024/03/30 04:53:33;;;;;;;10.00;5.10;;;14.70;1.00;;;;;;5054742;28;20293;-70
2024/03/30 04:56:00;;;;;;;10.50;5.33;;;14.70;1.00;;;;;;5055130;28;20639;-70
2024/03/30 04:58:28;;;;;;;16.57;5.07;;;14.60;1.00;;;;;;5054219;28;20472;-70
2024/03/30 05:00:59;;;;;;;14.90;5.60;;;14.50;1.00;;;;;;5054693;28;20412;-70
2024/03/30 05:03:24;;;;;;;11.93;5.87;;;;;;;;;;5054810;28;20401;-71
2024/03/30 05:05:50;;;;;;;18.63;6.47;;;14.50;1.00;;;;;;5054461;28;20756;-70
2024/03/30 05:08:16;;;;;;;16.53;5.67;;;14.40;1.00;;;;;;5053535;28;20835;-69
2024/03/30 05:10:42;;;;;;;15.70;6.83;;;14.30;1.00;;;;;;5054460;28;20673;-69
2024/03/30 05:13:08;;;;;;;14.60;6.73;;;14.20;1.00;;;;;;5054379;28;20183;-70
2024/03/30 05:15:37;;;;;;;10.13;5.30;;;;;;;;;;5054315;28;20824;-69
2024/03/30 05:18:07;;;;;;;20.87;5.17;;;13.90;1.00;;;;;;5054092;28;20593;-69
2024/03/30 05:20:50;;;;;;;15.87;7.37;;;13.80;1.00;;;;;;5054228;28;20767;-69
2024/03/30 05:23:27;;;;;;;17.93;5.00;;;13.60;1.00;;;;;;5053767;28;20405;-68
2024/03/30 05:25:55;;;;;;;5.37;4.80;;;13.50;1.00;;;;;;5054126;28;20417;-69
2024/03/30 05:28:22;;;;;;;10.73;5.00;;;13.50;1.00;;;;;;5053892;28;20484;-69
2024/03/30 05:30:52;;;;;;;18.77;5.40;;;13.50;1.00;;;;;;5059098;28;20517;-69
2024/03/30 05:33:23;;;;;;;15.00;4.83;;;13.60;1.00;;;;;;5060222;28;20422;-69
2024/03/30 05:35:52;;;;;;;12.60;4.20;;;13.70;1.00;;;;;;5061033;28;20473;-69
2024/03/30 05:38:18;;;;;;;11.77;6.30;;;13.70;1.00;;;;;;5057267;28;20563;-69
2024/03/30 05:40:45;;;;;;;13.97;6.13;;;13.80;1.00;;;;;;5054287;28;20502;-69
2024/03/30 05:43:11;;;;;;;15.90;5.83;;;13.80;1.00;;;;;;5054300;28;21038;-70
2024/03/30 05:45:39;;;;;;;14.87;5.17;;;13.90;1.00;;;;;;5054122;28;20448;-69
2024/03/30 05:48:05;;;;;;;24.00;6.13;;;13.90;1.00;;;;;;5053916;28;20439;-74
2024/03/30 05:50:31;;;;;;;12.57;5.43;;;14.00;1.00;;;;;;5053930;28;20467;-70
2024/03/30 05:52:57;;;;;;;12.80;5.10;;;14.20;1.00;;;;;;5053694;28;20825;-70
2024/03/30 05:55:23;;;;;;;11.63;4.97;;;14.70;1.00;;;;;;5053860;28;20416;-70
2024/03/30 05:57:50;;;;;;;9.37;4.30;;;15.10;1.00;;;;;;5052544;28;20465;-70
2024/03/30 06:00:15;;;;;;;28.33;7.60;;;15.60;1.00;;;;;;5053460;28;20543;-71
2024/03/30 06:02:45;;;;;;;12.13;5.20;;;16.00;1.00;;;;;;5053791;28;20546;-71
2024/03/30 06:05:12;;;;;;;6.80;5.07;;;16.50;1.00;;;;;;5053797;28;20209;-71
2024/03/30 06:07:38;;;;;;;10.03;5.90;;;17.10;1.00;;;;;;5053430;28;20447;-70
2024/03/30 06:10:07;;;;;;;30.33;6.33;;;17.50;1.00;;;;;;5053323;28;20500;-70
2024/03/30 06:12:33;;;;;;;10.93;6.23;;;;;;;;;;5034535;28;20508;-70
2024/03/30 06:14:58;;;;;;;21.10;7.63;;;18.50;1.00;;;;;;5033581;28;20529;-69
2024/03/30 06:17:24;;;;;;;15.73;6.30;;;;;;;;;;5032989;28;20539;-70
2024/03/30 06:19:50;;;;;;;17.17;6.10;;;19.10;1.00;;;;;;5033207;28;20171;-70
2024/03/30 06:22:15;;;;;;;15.97;7.17;;;19.20;1.00;;;;;;5033260;28;20476;-70
2024/03/30 06:24:41;;;;;;;22.47;6.97;;;19.20;1.00;;;;;;5033204;28;20260;-70
2024/03/30 06:27:07;;;;;;;11.63;6.23;;;19.10;1.00;;;;;;5033232;28;20230;-73
2024/03/30 06:29:37;;;;;;;19.83;7.70;;;19.00;1.00;;;;;;5032898;28;20797;-72
2024/03/30 06:32:04;;;;;;;26.77;7.50;;;19.00;1.00;;;;;;5032344;28;20414;-72
2024/03/30 06:34:29;;;;;;;16.87;6.50;;;19.00;1.00;;;;;;5031749;28;20831;-71
2024/03/30 06:36:55;;;;;;;29.20;9.40;;;18.90;1.00;;;;;;5033499;28;20419;-72
2024/03/30 06:39:21;;;;;;;17.63;6.83;;;18.80;1.00;;;;;;5048388;28;20215;-71
2024/03/30 06:44:30;;;;;;;20.70;8.10;;;18.60;1.00;;;;;;5033248;28;20190;-72
2024/03/30 06:46:56;;;;;;;19.70;7.87;;;18.60;1.00;;;;;;5032926;28;20414;-71
2024/03/30 06:49:22;;;;;;;32.50;8.83;;;18.50;1.00;;;;;;5038473;28;20211;-71
2024/03/30 06:51:48;;;;;;;27.23;8.70;;;18.50;1.00;;;;;;5050091;28;20183;-70
2024/03/30 06:54:14;;;;;;;34.37;9.30;;;18.40;1.00;;;;;;5032564;28;20421;-69
2024/03/30 06:56:40;;;;;;;20.43;8.23;;;18.60;1.00;;;;;;5049274;28;20413;-69
2024/03/30 06:59:05;;;;;;;22.03;7.53;;;18.80;1.00;;;;;;5051917;28;20218;-69
2024/03/30 07:01:31;;;;;;;19.93;8.20;;;18.90;1.00;;;;;;5052434;28;20417;-70
2024/03/30 07:03:57;;;;;;;28.43;9.10;;;18.90;1.00;;;;;;5052205;28;20171;-69
2024/03/30 07:06:23;;;;;;;31.13;9.57;;;18.90;1.00;;;;;;5052448;28;20183;-69
2024/03/30 07:08:51;;;;;;;28.33;8.90;;;18.80;1.00;;;;;;5051833;28;20946;-69
2024/03/30 07:11:19;;;;;;;31.87;9.47;;;18.70;1.00;;;;;;5051728;28;20425;-72
2024/03/30 07:13:45;;;;;;;15.43;8.37;;;18.80;1.00;;;;;;5051942;28;20424;-69
2024/03/30 07:16:11;;;;;;;27.57;8.83;;;18.90;1.00;;;;;;5052060;28;20417;-69
2024/03/30 07:18:36;;;;;;;23.80;8.03;;;19.00;1.00;;;;;;5051786;28;20511;-69
2024/03/30 07:21:02;;;;;;;22.93;8.33;;;19.10;1.00;;;;;;5052011;28;20186;-68
2024/03/30 07:23:28;;;;;;;24.13;8.30;;;19.00;1.00;;;;;;5050533;28;20285;-70
2024/03/30 07:25:53;;;;;;;23.60;9.93;;;18.90;1.00;;;;;;5051771;28;20601;-69
2024/03/30 07:28:19;;;;;;;34.13;9.93;;;18.80;1.00;;;;;;5050755;28;20209;-69
2024/03/30 07:30:48;;;;;;;29.63;8.20;;;18.50;1.00;;;;;;5051183;28;20543;-74
2024/03/30 07:33:14;;;;;;;17.27;8.20;;;18.40;1.00;;;;;;5051331;28;20262;-72
2024/03/30 07:35:39;;;;;;;24.77;8.63;;;18.30;1.00;;;;;;5051096;28;20448;-70
2024/03/30 07:38:05;;;;;;;30.33;8.83;;;18.20;1.00;;;;;;5048570;28;20213;-69
2024/03/30 07:40:30;;;;;;;20.43;8.50;;;18.10;1.00;;;;;;5047580;28;20191;-71
2024/03/30 07:42:56;;;;;;;35.20;9.80;;;18.10;1.00;;;;;;5036472;28;20191;-70
2024/03/30 07:45:21;;;;;;;32.67;8.00;;;18.00;1.00;;;;;;5045512;28;20187;-70
2024/03/30 07:47:47;;;;;;;27.23;8.47;;;18.00;1.00;;;;;;5047484;28;20212;-68
2024/03/30 07:50:13;;;;;;;26.10;9.37;;;18.00;1.00;;;;;;5048593;28;20191;-69
2024/03/30 07:52:38;;;;;;;26.47;8.97;;;18.00;1.00;;;;;;5047600;28;20190;-70
2024/03/30 07:55:05;;;;;;;29.07;8.40;;;18.10;1.00;;;;;;5046305;28;20194;-69
2024/03/30 07:57:32;;;;;;;24.23;8.77;;;18.10;1.00;;;;;;5047952;28;20218;-69
2024/03/30 07:59:58;;;;;;;24.40;9.30;;;18.20;1.00;;;;;;5049703;28;20425;-69
2024/03/30 08:02:23;;;;;;;18.63;7.37;;;18.20;1.00;;;;;;5052629;28;20471;-69
2024/03/30 08:04:50;;;;;;;14.63;7.03;;;18.30;1.00;;;;;;5053419;28;20421;-70
2024/03/30 08:07:15;;;;;;;28.23;8.67;;;18.30;1.00;;;;;;5052603;28;20185;-70
2024/03/30 08:09:41;;;;;;;21.03;8.53;;;18.40;1.00;;;;;;5045239;28;20884;-70
2024/03/30 08:12:06;;;;;;;17.43;7.73;;;18.40;1.00;;;;;;5061547;28;20175;-69
2024/03/30 08:14:32;;;;;;;22.73;8.33;;;18.40;1.00;;;;;;5031754;28;20179;-69
2024/03/30 08:16:57;;;;;;;19.40;9.03;;;18.40;1.00;;;;;;5033738;28;20187;-69
2024/03/30 08:19:23;;;;;;;39.77;10.17;;;18.30;1.00;;;;;;5051186;28;20248;-69
2024/03/30 08:21:49;;;;;;;31.73;9.17;;;18.30;1.00;;;;;;5053129;28;20171;-70
2024/03/30 08:24:14;;;;;;;23.93;9.10;;;18.30;1.00;;;;;;5055208;28;20178;-69
2024/03/30 08:26:40;;;;;;;18.50;7.90;;;18.30;1.00;;;;;;5055210;28;20201;-69
2024/03/30 08:29:06;;;;;;;19.90;8.20;;;18.30;1.00;;;;;;5048637;28;20568;-68
2024/03/30 08:31:32;;;;;;;22.03;7.50;;;18.20;1.00;;;;;;5058263;28;20334;-69
2024/03/30 08:33:58;;;;;;;31.93;9.60;;;18.20;1.00;;;;;;5054073;28;20555;-69
2024/03/30 08:36:23;;;;;;;19.80;8.40;;;18.20;1.00;;;;;;5054161;28;20565;-71
2024/03/30 08:38:49;;;;;;;14.80;8.30;;;18.20;1.00;;;;;;5054653;28;20218;-69
2024/03/30 08:41:14;;;;;;;21.83;7.53;;;18.20;1.00;;;;;;5055122;28;20174;-69
2024/03/30 08:43:40;;;;;;;21.03;7.13;;;18.20;1.00;;;;;;5055092;28;20186;-69
2024/03/30 08:46:06;;;;;;;20.20;8.13;;;18.20;1.00;;;;;;5055034;28;20183;-69
2024/03/30 08:48:34;;;;;;;18.73;8.83;;;18.20;1.00;;;;;;5053577;28;20678;-69
2024/03/30 08:51:03;;;;;;;15.37;7.57;;;18.20;1.00;;;;;;5055511;28;20558;-71
2024/03/30 08:53:29;;;;;;;15.40;7.63;;;18.20;1.00;;;;;;5055440;28;20417;-69
2024/03/30 08:56:03;;;;;;;25.57;7.57;;;18.10;1.00;;;;;;5055057;28;20424;-69
2024/03/30 08:58:29;;;;;;;16.97;7.37;;;18.10;1.00;;;;;;5054905;28;20555;-69
2024/03/30 09:00:55;;;;;;;28.30;8.13;;;18.20;1.00;;;;;;5054718;28;20420;-69
2024/03/30 09:03:21;;;;;;;26.57;7.83;;;18.30;1.00;;;;;;5054899;28;20413;-69
2024/03/30 09:05:47;;;;;;;19.43;8.30;;;18.30;1.00;;;;;;5054879;28;20179;-69
2024/03/30 09:08:13;;;;;;;28.17;9.27;;;18.30;1.00;;;;;;5053079;28;20203;-69
2024/03/30 09:10:40;;;;;;;22.90;7.70;;;18.40;1.00;;;;;;5054774;28;20516;-68
2024/03/30 09:13:05;;;;;;;35.13;8.53;;;18.40;1.00;;;;;;5054496;28;20405;-68
2024/03/30 09:15:31;;;;;;;37.07;9.97;;;18.40;1.00;;;;;;5054483;28;20428;-68
2024/03/30 09:17:56;;;;;;;28.57;9.10;;;18.40;1.00;;;;;;5054411;28;20576;-68
2024/03/30 09:20:22;;;;;;;23.83;8.33;;;18.50;1.00;;;;;;5054487;28;20553;-67
2024/03/30 09:22:48;;;;;;;13.90;6.60;;;18.50;1.00;;;;;;5054151;28;20523;-68
2024/03/30 09:25:14;;;;;;;14.37;7.80;;;18.40;1.00;;;;;;5054495;28;20240;-68
2024/03/30 09:27:41;;;;;;;35.80;10.10;;;18.50;1.00;;;;;;5054340;28;20716;-68
2024/03/30 09:30:11;;;;;;;26.03;7.30;;;18.50;1.00;;;;;;5054215;28;20742;-68
2024/03/30 09:32:39;;;;;;;26.33;8.43;;;18.60;1.00;;;;;;5054420;28;20830;-68
2024/03/30 09:35:08;;;;;;;14.27;7.17;;;18.70;1.00;;;;;;5063685;28;20409;-68
2024/03/30 09:39:59;;;;;;;24.90;8.13;;;18.70;1.00;;;;;;5094167;22;20514;-69
2024/03/30 09:42:33;;;;;;;29.67;8.30;;;18.60;1.00;;;;;;5056436;28;20185;-69
2024/03/30 09:45:00;;;;;;;15.43;7.30;;;18.60;1.00;;;;;;5074408;28;20174;-69
2024/03/30 09:47:26;;;;;;;13.63;6.50;;;18.60;1.00;;;;;;5074076;28;20412;-69
2024/03/30 09:49:53;;;;;;;15.93;7.97;;;18.60;1.00;;;;;;5073408;28;20439;-69
2024/03/30 09:52:20;;;;;;;30.13;9.40;;;18.60;1.00;;;;;;5055873;28;20473;-69
2024/03/30 09:54:49;;;;;;;20.57;7.53;;;18.60;1.00;;;;;;5074336;28;20396;-69
2024/03/30 09:57:16;;;;;;;20.07;6.83;;;18.60;1.00;;;;;;5073117;28;20463;-69
2024/03/30 09:59:43;;;;;;;32.53;9.80;;;18.60;1.00;;;;;;5073252;28;20507;-70
2024/03/30 10:02:10;;;;;;;13.93;7.53;;;18.50;1.00;;;;;;5072839;28;20424;-70
2024/03/30 10:04:36;;;;;;;16.30;7.63;;;18.50;1.00;;;;;;5073627;28;20444;-69
2024/03/30 10:07:08;;;;;;;17.33;7.10;;;18.50;1.00;;;;;;5073739;28;20925;-70
2024/03/30 10:09:34;;;;;;;22.70;7.90;;;18.40;1.00;;;;;;5073311;28;20198;-69
2024/03/30 10:12:08;;;;;;;14.57;7.90;;;18.40;1.00;;;;;;5073590;28;20454;-69
2024/03/30 10:14:39;;;;;;;23.23;8.60;;;18.50;1.00;;;;;;5073346;28;20189;-69
2024/03/30 10:17:07;;;;;;;22.20;8.43;;;18.50;1.00;;;;;;5089160;28;20412;-70
2024/03/30 10:19:34;;;;;;;18.77;8.10;;;18.60;1.00;;;;;;5073387;28;20456;-69
2024/03/30 10:22:02;;;;;;;23.50;8.20;;;18.80;1.00;;;;;;5074022;28;20452;-69
2024/03/30 10:24:29;;;;;;;14.70;7.20;;;18.80;1.00;;;;;;5074006;28;20405;-70
2024/03/30 10:26:55;;;;;;;31.13;8.90;;;18.90;1.00;;;;;;5073870;28;20491;-70
2024/03/30 10:29:20;;;;;;;23.60;8.67;;;19.00;1.00;;;;;;5073587;28;20870;-70
2024/03/30 10:31:47;;;;;;;17.37;7.60;;;19.10;1.00;;;;;;5073691;28;20174;-70
2024/03/30 10:34:13;;;;;;;30.40;9.10;;;19.20;1.00;;;;;;5073712;28;20205;-70
2024/03/30 10:36:39;;;;;;;18.30;8.67;;;19.10;1.00;;;;;;5075206;28;20420;-70
2024/03/30 10:39:04;;;;;;;17.00;7.23;;;19.10;1.00;;;;;;5074187;28;20861;-69
2024/03/30 10:41:30;;;;;;;20.70;8.73;;;19.10;1.00;;;;;;5073266;28;20553;-70
2024/03/30 10:43:56;;;;;;;19.93;6.90;;;19.20;1.00;;;;;;5088307;28;20180;-70
2024/03/30 10:46:25;;;;;;;27.03;8.10;;;19.10;1.00;;;;;;5072846;28;20413;-69
2024/03/30 10:48:52;;;;;;;17.23;7.47;;;19.10;1.00;;;;;;5072478;28;20194;-69
2024/03/30 10:51:18;;;;;;;22.30;8.80;;;18.80;1.00;;;;;;5072639;28;20420;-69
2024/03/30 10:53:44;;;;;;;24.93;7.70;;;18.60;1.00;;;;;;5072648;28;20481;-68
2024/03/30 10:56:10;;;;;;;17.43;7.77;;;18.60;1.00;;;;;;5054707;28;20428;-69
2024/03/30 10:58:37;;;;;;;31.90;8.83;;;18.60;1.00;;;;;;5072001;28;20213;-68
2024/03/30 11:01:05;;;;;;;22.53;7.47;;;18.70;1.00;;;;;;5072725;28;20412;-69
2024/03/30 11:03:32;;;;;;;19.30;8.30;;;18.80;1.00;;;;;;5072464;28;20750;-68
2024/03/30 11:05:59;;;;;;;25.60;7.43;;;18.90;1.00;;;;;;5072346;28;20404;-68
2024/03/30 11:08:28;;;;;;;23.77;8.80;;;18.80;1.00;;;;;;5053869;28;20514;-68
2024/03/30 11:10:54;;;;;;;19.17;6.70;;;18.80;1.00;;;;;;5072410;28;20405;-69
2024/03/30 11:13:21;;;;;;;22.90;8.03;;;18.90;1.00;;;;;;5072215;28;20411;-70
2024/03/30 11:15:49;;;;;;;28.03;8.50;;;18.90;1.00;;;;;;5072447;28;20413;-69
2024/03/30 11:18:26;;;;;;;18.20;8.10;;;19.10;1.00;;;;;;5071872;28;20512;-69
2024/03/30 11:21:00;;;;;;;24.23;8.60;;;19.30;1.00;;;;;;5077604;28;20430;-69
2024/03/30 11:23:56;;;;;;;22.63;7.17;;;19.40;1.00;;;;;;5070813;28;20419;-69
2024/03/30 11:26:23;;;;;;;19.57;6.97;;;19.20;1.00;;;;;;5073833;28;20416;-69
2024/03/30 11:29:22;;;;;;;15.13;8.20;;;19.40;1.00;;;;;;5071428;28;20436;-68
2024/03/30 11:31:55;;;;;;;19.43;6.90;;;19.60;1.00;;;;;;5072131;28;20423;-69
2024/03/30 11:34:21;;;;;;;18.67;7.87;;;19.50;1.00;;;;;;5063983;28;20425;-68
2024/03/30 11:36:55;;;;;;;16.87;8.00;;;19.40;1.00;;;;;;5071989;28;20718;-68
2024/03/30 11:39:27;;;;;;;23.53;9.00;;;19.40;1.00;;;;;;5089662;28;20207;-68
2024/03/30 11:42:00;;;;;;;15.77;8.70;;;19.10;1.00;;;;;;5073915;28;20407;-68
2024/03/30 11:44:28;;;;;;;20.10;8.53;;;18.50;1.00;;;;;;5081124;28;20420;-68
2024/03/30 11:46:55;;;;;;;14.40;7.80;;;18.30;1.00;;;;;;5071534;28;20520;-68
2024/03/30 11:49:22;;;;;;;23.00;8.63;;;18.00;1.00;;;;;;5071501;28;20440;-69
2024/03/30 11:51:50;;;;;;;21.43;8.60;;;18.10;1.00;;;;;;5054076;28;20466;-69
2024/03/30 11:54:23;;;;;;;17.80;7.17;;;18.20;1.00;;;;;;5071787;28;20427;-68
2024/03/30 11:57:10;;;;;;;14.10;6.47;;;18.40;1.00;;;;;;5052913;28;20413;-67
2024/03/30 11:59:41;;;;;;;18.53;6.20;;;18.20;1.00;;;;;;5071335;28;20497;-68
2024/03/30 12:02:11;;;;;;;20.83;7.37;;;18.00;1.00;;;;;;5071993;28;20408;-68
2024/03/30 12:04:42;;;;;;;13.37;7.03;;;18.00;1.00;;;;;;5072092;28;20496;-68
2024/03/30 12:07:08;;;;;;;17.90;6.70;;;18.10;1.00;;;;;;5071730;28;20419;-68
2024/03/30 12:09:34;;;;;;;22.83;6.40;;;17.90;1.00;;;;;;5071399;28;20440;-68
2024/03/30 12:12:20;;;;;;;13.37;7.63;;;17.80;1.00;;;;;;5071693;28;20401;-69
2024/03/30 12:14:47;;;;;;;26.30;7.03;;;17.80;1.00;;;;;;5062379;28;20446;-68
2024/03/30 12:17:13;;;;;;;21.47;7.27;;;17.60;1.00;;;;;;5091796;28;20407;-68
2024/03/30 12:19:40;;;;;;;15.40;6.43;;;17.60;1.00;;;;;;5091560;28;20431;-69
2024/03/30 12:22:05;;;;;;;14.30;6.40;;;17.60;1.00;;;;;;5077923;28;20458;-68
2024/03/30 12:24:33;;;;;;;17.73;6.60;;;17.40;1.00;;;;;;5071662;28;20408;-69
2024/03/30 12:26:58;;;;;;;17.23;6.67;;;17.40;1.00;;;;;;5071796;28;20170;-68
2024/03/30 12:29:24;;;;;;;29.93;8.13;;;17.60;1.00;;;;;;5071611;28;20525;-69
2024/03/30 12:31:50;;;;;;;21.23;5.70;;;17.50;1.00;;;;;;5071632;28;20186;-69
2024/03/30 12:34:16;;;;;;;17.87;7.50;;;17.50;1.00;;;;;;5071647;28;20212;-69
2024/03/30 12:36:45;;;;;;;10.73;6.60;;;17.60;1.00;;;;;;5071745;28;20408;-69
2024/03/30 12:39:11;;;;;;;17.73;6.47;;;17.70;1.00;;;;;;5071487;28;20540;-69
2024/03/30 12:41:37;;;;;;;23.77;8.03;;;17.80;1.00;;;;;;5071557;28;20443;-69
2024/03/30 12:44:04;;;;;;;20.33;7.53;;;17.80;1.00;;;;;;5071604;28;20420;-70
2024/03/30 12:46:30;;;;;;;23.50;7.53;;;18.00;1.00;;;;;;5071262;28;20268;-69
2024/03/30 12:49:02;;;;;;;12.40;6.47;;;18.10;1.00;;;;;;5071210;28;20444;-68